sensor_id;sensor_type;location;lat;lon;timestamp;pressure;altitude;pressure_sealevel;temperature;humidity
54455;BME280;40364;52.270;10.546;2022-12-29T00:01:56;99438.16;;;15.63;63.24
54455;BME280;40364;52.270;10.546;2022-12-29T00:04:23;99434.44;;;16.02;61.10
54455;BME280;40364;52.270;10.546;2022-12-29T00:06:52;99440.13;;;15.88;62.37
54455;BME280;40364;52.270;10.546;2022-12-29T00:09:18;99445.78;;;15.66;62.10
54455;BME280;40364;52.270;10.546;2022-12-29T00:11:45;99443.94;;;16.29;60.26
54455;BME280;40364;52.270;10.546;2022-12-29T00:14:12;99453.00;;;15.49;62.50
54455;BME280;40364;52.270;10.546;2022-12-29T00:16:57;99448.31;;;17.03;57.53
54455;BME280;40364;52.270;10.546;2022-12-29T00:19:24;99444.56;;;17.17;57.35
54455;BME280;40364;52.270;10.546;2022-12-29T00:22:10;99438.47;;;16.74;58.16
54455;BME280;40364;52.270;10.546;2022-12-29T00:24:54;99425.66;;;16.62;58.90
54455;BME280;40364;52.270;10.546;2022-12-29T00:27:39;99431.94;;;17.36;56.20
54455;BME280;40364;52.270;10.546;2022-12-29T00:30:23;99431.66;;;16.75;58.15
54455;BME280;40364;52.270;10.546;2022-12-29T00:33:09;99433.53;;;17.37;55.71
54455;BME280;40364;52.270;10.546;2022-12-29T00:35:57;99432.63;;;17.47;55.81
54455;BME280;40364;52.270;10.546;2022-12-29T00:38:27;99424.00;;;17.24;57.22
54455;BME280;40364;52.270;10.546;2022-12-29T00:41:14;99423.44;;;16.98;56.36
54455;BME280;40364;52.270;10.546;2022-12-29T00:43:58;99415.53;;;16.13;59.68
54455;BME280;40364;52.270;10.546;2022-12-29T00:46:31;99424.00;;;17.24;56.53
54455;BME280;40364;52.270;10.546;2022-12-29T00:48:58;99401.09;;;16.11;60.10
54455;BME280;40364;52.270;10.546;2022-12-29T00:51:42;99407.53;;;16.77;58.64
54455;BME280;40364;52.270;10.546;2022-12-29T00:54:10;99409.78;;;16.34;59.84
54455;BME280;40364;52.270;10.546;2022-12-29T00:56:37;99411.63;;;16.62;59.41
54455;BME280;40364;52.270;10.546;2022-12-29T00:59:05;99412.19;;;16.95;57.22
54455;BME280;40364;52.270;10.546;2022-12-29T01:01:33;99411.56;;;16.00;61.34
54455;BME280;40364;52.270;10.546;2022-12-29T01:03:59;99415.97;;;16.01;61.33
54455;BME280;40364;52.270;10.546;2022-12-29T01:06:26;99421.59;;;16.01;62.01
54455;BME280;40364;52.270;10.546;2022-12-29T01:08:53;99422.19;;;16.44;60.08
54455;BME280;40364;52.270;10.546;2022-12-29T01:11:35;99414.22;;;16.32;61.02
54455;BME280;40364;52.270;10.546;2022-12-29T01:14:02;99429.47;;;16.31;60.15
54455;BME280;40364;52.270;10.546;2022-12-29T01:16:28;99410.59;;;16.31;61.54
54455;BME280;40364;52.270;10.546;2022-12-29T01:18:55;99413.25;;;16.56;59.83
54455;BME280;40364;52.270;10.546;2022-12-29T01:21:22;99412.25;;;16.22;61.46
54455;BME280;40364;52.270;10.546;2022-12-29T01:23:49;99392.28;;;16.75;60.24
54455;BME280;40364;52.270;10.546;2022-12-29T01:26:17;99398.72;;;16.75;59.49
54455;BME280;40364;52.270;10.546;2022-12-29T01:28:45;99400.66;;;17.27;58.58
54455;BME280;40364;52.270;10.546;2022-12-29T01:31:13;99389.75;;;16.29;62.78
54455;BME280;40364;52.270;10.546;2022-12-29T01:33:40;99393.38;;;16.88;60.90
54455;BME280;40364;52.270;10.546;2022-12-29T01:36:09;99386.25;;;17.21;59.00
54455;BME280;40364;52.270;10.546;2022-12-29T01:38:37;99390.34;;;16.61;61.79
54455;BME280;40364;52.270;10.546;2022-12-29T01:41:05;99386.59;;;16.82;61.42
54455;BME280;40364;52.270;10.546;2022-12-29T01:43:39;99378.75;;;17.07;60.41
54455;BME280;40364;52.270;10.546;2022-12-29T01:46:14;99389.59;;;17.09;60.66
54455;BME280;40364;52.270;10.546;2022-12-29T01:48:45;99393.44;;;17.26;59.01
54455;BME280;40364;52.270;10.546;2022-12-29T01:51:14;99384.00;;;17.05;59.57
54455;BME280;40364;52.270;10.546;2022-12-29T01:53:41;99386.22;;;17.25;59.09
54455;BME280;40364;52.270;10.546;2022-12-29T01:56:10;99375.09;;;17.86;57.08
54455;BME280;40364;52.270;10.546;2022-12-29T01:58:42;99382.50;;;17.35;58.05
54455;BME280;40364;52.270;10.546;2022-12-29T02:01:12;99370.03;;;17.36;58.10
54455;BME280;40364;52.270;10.546;2022-12-29T02:03:39;99366.50;;;18.27;55.16
54455;BME280;40364;52.270;10.546;2022-12-29T02:06:11;99359.25;;;17.65;56.52
54455;BME280;40364;52.270;10.546;2022-12-29T02:08:40;99364.47;;;17.29;58.34
54455;BME280;40364;52.270;10.546;2022-12-29T02:11:07;99357.47;;;17.78;56.61
54455;BME280;40364;52.270;10.546;2022-12-29T02:13:34;99346.44;;;18.21;55.69
54455;BME280;40364;52.270;10.546;2022-12-29T02:16:08;99347.47;;;19.08;52.38
54455;BME280;40364;52.270;10.546;2022-12-29T02:18:47;99338.81;;;19.62;50.55
54455;BME280;40364;52.270;10.546;2022-12-29T02:21:55;99357.63;;;18.28;54.77
54455;BME280;40364;52.270;10.546;2022-12-29T02:24:53;99346.91;;;18.43;54.58
54455;BME280;40364;52.270;10.546;2022-12-29T02:27:51;99328.88;;;17.79;57.03
54455;BME280;40364;52.270;10.546;2022-12-29T02:30:45;99337.81;;;16.99;60.17
54455;BME280;40364;52.270;10.546;2022-12-29T02:33:23;99315.59;;;17.12;60.25
54455;BME280;40364;52.270;10.546;2022-12-29T02:35:57;99318.16;;;18.01;56.29
54455;BME280;40364;52.270;10.546;2022-12-29T02:38:38;99308.66;;;17.54;58.83
54455;BME280;40364;52.270;10.546;2022-12-29T02:41:20;99310.09;;;18.54;55.66
54455;BME280;40364;52.270;10.546;2022-12-29T02:43:52;99301.63;;;18.30;55.84
54455;BME280;40364;52.270;10.546;2022-12-29T02:46:43;99305.19;;;17.43;59.04
54455;BME280;40364;52.270;10.546;2022-12-29T02:49:15;99306.94;;;17.64;58.94
54455;BME280;40364;52.270;10.546;2022-12-29T02:51:50;99296.28;;;18.09;57.39
54455;BME280;40364;52.270;10.546;2022-12-29T02:54:19;99308.97;;;16.43;63.25
54455;BME280;40364;52.270;10.546;2022-12-29T02:57:14;99307.00;;;16.85;62.08
54455;BME280;40364;52.270;10.546;2022-12-29T02:59:42;99305.72;;;16.93;61.29
54455;BME280;40364;52.270;10.546;2022-12-29T03:02:29;99298.38;;;17.06;61.05
54455;BME280;40364;52.270;10.546;2022-12-29T03:05:22;99306.13;;;17.33;60.97
54455;BME280;40364;52.270;10.546;2022-12-29T03:08:03;99296.56;;;16.86;62.40
54455;BME280;40364;52.270;10.546;2022-12-29T03:10:37;99286.06;;;17.27;61.18
54455;BME280;40364;52.270;10.546;2022-12-29T03:13:19;99289.44;;;17.49;59.79
54455;BME280;40364;52.270;10.546;2022-12-29T03:16:14;99282.44;;;16.93;62.35
54455;BME280;40364;52.270;10.546;2022-12-29T03:18:51;99286.53;;;17.22;61.58
54455;BME280;40364;52.270;10.546;2022-12-29T03:21:22;99292.66;;;17.13;62.04
54455;BME280;40364;52.270;10.546;2022-12-29T03:24:11;99288.50;;;17.25;61.03
54455;BME280;40364;52.270;10.546;2022-12-29T03:26:41;99288.47;;;17.29;61.08
54455;BME280;40364;52.270;10.546;2022-12-29T03:29:12;99288.84;;;17.95;59.39
54455;BME280;40364;52.270;10.546;2022-12-29T03:31:42;99294.72;;;17.09;62.25
54455;BME280;40364;52.270;10.546;2022-12-29T03:34:12;99289.75;;;17.89;59.85
54455;BME280;40364;52.270;10.546;2022-12-29T03:36:45;99271.75;;;17.14;62.75
54455;BME280;40364;52.270;10.546;2022-12-29T03:39:14;99274.50;;;17.86;60.05
54455;BME280;40364;52.270;10.546;2022-12-29T03:41:42;99280.16;;;17.82;60.49
54455;BME280;40364;52.270;10.546;2022-12-29T03:44:10;99263.91;;;17.33;61.87
54455;BME280;40364;52.270;10.546;2022-12-29T03:46:37;99261.69;;;17.13;62.95
54455;BME280;40364;52.270;10.546;2022-12-29T03:49:04;99262.47;;;17.17;63.10
54455;BME280;40364;52.270;10.546;2022-12-29T03:51:32;99243.34;;;17.05;64.51
54455;BME280;40364;52.270;10.546;2022-12-29T03:53:59;99239.13;;;17.21;63.94
54455;BME280;40364;52.270;10.546;2022-12-29T03:56:25;99251.84;;;17.63;62.22
54455;BME280;40364;52.270;10.546;2022-12-29T03:58:52;99247.22;;;17.79;61.61
54455;BME280;40364;52.270;10.546;2022-12-29T04:01:19;99251.09;;;17.28;63.70
54455;BME280;40364;52.270;10.546;2022-12-29T04:03:45;99251.84;;;17.66;61.82
54455;BME280;40364;52.270;10.546;2022-12-29T04:06:12;99241.06;;;17.58;62.22
54455;BME280;40364;52.270;10.546;2022-12-29T04:08:40;99244.69;;;17.89;62.28
54455;BME280;40364;52.270;10.546;2022-12-29T04:11:06;99233.31;;;17.35;64.57
54455;BME280;40364;52.270;10.546;2022-12-29T04:13:33;99244.59;;;17.35;63.92
54455;BME280;40364;52.270;10.546;2022-12-29T04:16:00;99247.50;;;17.58;63.79
54455;BME280;40364;52.270;10.546;2022-12-29T04:18:26;99256.22;;;17.03;65.73
54455;BME280;40364;52.270;10.546;2022-12-29T04:20:53;99258.19;;;17.40;64.85
54455;BME280;40364;52.270;10.546;2022-12-29T04:23:26;99231.50;;;17.17;63.97
54455;BME280;40364;52.270;10.546;2022-12-29T04:25:54;99251.28;;;16.76;66.37
54455;BME280;40364;52.270;10.546;2022-12-29T04:28:21;99235.53;;;16.82;66.00
54455;BME280;40364;52.270;10.546;2022-12-29T04:30:47;99223.19;;;17.41;63.75
54455;BME280;40364;52.270;10.546;2022-12-29T04:33:14;99226.34;;;17.12;65.65
54455;BME280;40364;52.270;10.546;2022-12-29T04:35:42;99239.41;;;16.96;65.63
54455;BME280;40364;52.270;10.546;2022-12-29T04:38:08;99219.00;;;17.22;63.59
54455;BME280;40364;52.270;10.546;2022-12-29T04:40:35;99236.56;;;17.64;61.40
54455;BME280;40364;52.270;10.546;2022-12-29T04:43:05;99228.63;;;17.25;64.69
54455;BME280;40364;52.270;10.546;2022-12-29T04:45:32;99226.03;;;17.71;60.19
54455;BME280;40364;52.270;10.546;2022-12-29T04:47:58;99218.63;;;17.50;61.52
54455;BME280;40364;52.270;10.546;2022-12-29T04:50:25;99241.94;;;16.83;64.16
54455;BME280;40364;52.270;10.546;2022-12-29T04:52:52;99230.75;;;17.13;63.47
54455;BME280;40364;52.270;10.546;2022-12-29T04:55:19;99230.88;;;17.06;63.09
54455;BME280;40364;52.270;10.546;2022-12-29T04:57:45;99230.31;;;17.79;60.64
54455;BME280;40364;52.270;10.546;2022-12-29T05:00:14;99224.97;;;17.58;61.36
54455;BME280;40364;52.270;10.546;2022-12-29T05:02:41;99224.09;;;17.00;62.75
54455;BME280;40364;52.270;10.546;2022-12-29T05:05:08;99222.09;;;17.31;61.99
54455;BME280;40364;52.270;10.546;2022-12-29T05:07:35;99226.00;;;17.41;61.46
54455;BME280;40364;52.270;10.546;2022-12-29T05:10:02;99222.31;;;17.13;62.38
54455;BME280;40364;52.270;10.546;2022-12-29T05:12:30;99220.81;;;17.05;63.01
54455;BME280;40364;52.270;10.546;2022-12-29T05:14:57;99228.53;;;17.93;59.46
54455;BME280;40364;52.270;10.546;2022-12-29T05:17:25;99220.94;;;17.59;60.71
54455;BME280;40364;52.270;10.546;2022-12-29T05:19:52;99212.41;;;17.36;61.52
54455;BME280;40364;52.270;10.546;2022-12-29T05:22:18;99222.19;;;17.55;60.85
54455;BME280;40364;52.270;10.546;2022-12-29T05:24:45;99227.03;;;17.84;59.73
54455;BME280;40364;52.270;10.546;2022-12-29T05:27:12;99224.19;;;18.62;57.35
54455;BME280;40364;52.270;10.546;2022-12-29T05:29:39;99221.81;;;17.52;60.80
54455;BME280;40364;52.270;10.546;2022-12-29T05:32:06;99216.91;;;17.30;61.24
54455;BME280;40364;52.270;10.546;2022-12-29T05:34:34;99219.97;;;17.73;59.90
54455;BME280;40364;52.270;10.546;2022-12-29T05:37:01;99216.66;;;17.78;59.47
54455;BME280;40364;52.270;10.546;2022-12-29T05:39:27;99217.56;;;17.41;60.35
54455;BME280;40364;52.270;10.546;2022-12-29T05:41:54;99211.06;;;17.74;59.50
54455;BME280;40364;52.270;10.546;2022-12-29T05:44:21;99210.91;;;18.12;57.92
54455;BME280;40364;52.270;10.546;2022-12-29T05:46:48;99216.44;;;17.35;59.84
54455;BME280;40364;52.270;10.546;2022-12-29T05:49:15;99214.16;;;17.53;59.38
54455;BME280;40364;52.270;10.546;2022-12-29T05:51:43;99212.53;;;17.86;58.63
54455;BME280;40364;52.270;10.546;2022-12-29T05:54:09;99212.84;;;17.65;58.50
54455;BME280;40364;52.270;10.546;2022-12-29T05:56:36;99207.53;;;17.40;60.00
54455;BME280;40364;52.270;10.546;2022-12-29T05:59:03;99206.00;;;17.62;58.68
54455;BME280;40364;52.270;10.546;2022-12-29T06:01:29;99215.09;;;17.73;58.72
54455;BME280;40364;52.270;10.546;2022-12-29T06:03:56;99222.63;;;17.53;59.32
54455;BME280;40364;52.270;10.546;2022-12-29T06:06:23;99223.28;;;17.34;59.88
54455;BME280;40364;52.270;10.546;2022-12-29T06:08:51;99220.22;;;17.51;60.81
54455;BME280;40364;52.270;10.546;2022-12-29T06:11:18;99212.94;;;17.54;61.23
54455;BME280;40364;52.270;10.546;2022-12-29T06:13:44;99217.16;;;18.00;59.50
54455;BME280;40364;52.270;10.546;2022-12-29T06:16:11;99206.81;;;18.40;60.50
54455;BME280;40364;52.270;10.546;2022-12-29T06:18:38;99227.69;;;17.35;66.08
54455;BME280;40364;52.270;10.546;2022-12-29T06:21:05;99215.25;;;17.63;64.37
54455;BME280;40364;52.270;10.546;2022-12-29T06:23:32;99216.41;;;17.96;62.35
54455;BME280;40364;52.270;10.546;2022-12-29T06:26:00;99217.25;;;17.35;65.58
54455;BME280;40364;52.270;10.546;2022-12-29T06:28:27;99222.00;;;17.72;63.98
54455;BME280;40364;52.270;10.546;2022-12-29T06:30:53;99207.97;;;17.69;63.07
54455;BME280;40364;52.270;10.546;2022-12-29T06:33:20;99221.44;;;17.50;64.67
54455;BME280;40364;52.270;10.546;2022-12-29T06:35:47;99213.53;;;17.99;62.61
54455;BME280;40364;52.270;10.546;2022-12-29T06:38:13;99202.78;;;17.91;63.25
54455;BME280;40364;52.270;10.546;2022-12-29T06:40:41;99200.63;;;18.02;62.38
54455;BME280;40364;52.270;10.546;2022-12-29T06:43:11;99200.72;;;17.37;65.73
54455;BME280;40364;52.270;10.546;2022-12-29T06:45:38;99200.09;;;18.07;62.88
54455;BME280;40364;52.270;10.546;2022-12-29T06:48:06;99195.09;;;17.68;64.50
54455;BME280;40364;52.270;10.546;2022-12-29T06:50:33;99205.56;;;17.67;64.53
54455;BME280;40364;52.270;10.546;2022-12-29T06:53:00;99207.16;;;17.68;64.71
54455;BME280;40364;52.270;10.546;2022-12-29T06:55:26;99185.69;;;17.78;63.13
54455;BME280;40364;52.270;10.546;2022-12-29T06:57:54;99202.31;;;17.69;64.21
54455;BME280;40364;52.270;10.546;2022-12-29T07:00:22;99208.63;;;17.76;64.34
54455;BME280;40364;52.270;10.546;2022-12-29T07:02:49;99214.50;;;17.89;63.25
54455;BME280;40364;52.270;10.546;2022-12-29T07:05:15;99206.06;;;17.59;64.70
54455;BME280;40364;52.270;10.546;2022-12-29T07:07:42;99203.06;;;17.42;63.67
54455;BME280;40364;52.270;10.546;2022-12-29T07:10:09;99196.75;;;17.35;65.61
54455;BME280;40364;52.270;10.546;2022-12-29T07:12:35;99186.41;;;17.55;64.16
54455;BME280;40364;52.270;10.546;2022-12-29T07:15:02;99194.97;;;18.02;63.48
54455;BME280;40364;52.270;10.546;2022-12-29T07:17:30;99175.41;;;17.64;64.07
54455;BME280;40364;52.270;10.546;2022-12-29T07:19:57;99176.25;;;17.34;65.87
54455;BME280;40364;52.270;10.546;2022-12-29T07:22:24;99179.41;;;17.94;63.75
54455;BME280;40364;52.270;10.546;2022-12-29T07:24:50;99199.00;;;17.43;64.96
54455;BME280;40364;52.270;10.546;2022-12-29T07:27:17;99201.78;;;17.47;64.63
54455;BME280;40364;52.270;10.546;2022-12-29T07:29:43;99201.75;;;17.20;66.05
54455;BME280;40364;52.270;10.546;2022-12-29T07:32:10;99221.06;;;17.18;66.69
54455;BME280;40364;52.270;10.546;2022-12-29T07:34:38;99197.50;;;17.69;64.49
54455;BME280;40364;52.270;10.546;2022-12-29T07:37:05;99196.47;;;17.83;63.74
54455;BME280;40364;52.270;10.546;2022-12-29T07:39:31;99186.22;;;17.08;66.00
54455;BME280;40364;52.270;10.546;2022-12-29T07:41:58;99197.56;;;17.01;66.98
54455;BME280;40364;52.270;10.546;2022-12-29T07:44:25;99191.69;;;17.49;65.58
54455;BME280;40364;52.270;10.546;2022-12-29T07:46:51;99193.31;;;17.77;63.75
54455;BME280;40364;52.270;10.546;2022-12-29T07:49:18;99211.44;;;17.15;66.52
54455;BME280;40364;52.270;10.546;2022-12-29T07:51:46;99206.38;;;18.18;61.26
54455;BME280;40364;52.270;10.546;2022-12-29T07:54:13;99215.38;;;17.22;65.09
54455;BME280;40364;52.270;10.546;2022-12-29T07:56:39;99216.97;;;17.23;65.58
54455;BME280;40364;52.270;10.546;2022-12-29T07:59:06;99215.97;;;17.70;63.32
54455;BME280;40364;52.270;10.546;2022-12-29T08:01:33;99209.25;;;17.30;64.75
54455;BME280;40364;52.270;10.546;2022-12-29T08:03:59;99216.97;;;17.53;64.25
54455;BME280;40364;52.270;10.546;2022-12-29T08:06:26;99228.63;;;17.86;62.54
54455;BME280;40364;52.270;10.546;2022-12-29T08:08:55;99233.47;;;18.35;59.89
54455;BME280;40364;52.270;10.546;2022-12-29T08:11:22;99232.19;;;19.46;55.92
54455;BME280;40364;52.270;10.546;2022-12-29T08:13:49;99239.25;;;18.75;57.11
54455;BME280;40364;52.270;10.546;2022-12-29T08:18:21;99226.00;;;18.48;60.64
54455;BME280;40364;52.270;10.546;2022-12-29T08:20:48;99227.72;;;18.66;60.97
54455;BME280;40364;52.270;10.546;2022-12-29T08:23:14;99258.34;;;17.90;67.25
54455;BME280;40364;52.270;10.546;2022-12-29T08:25:41;99256.34;;;17.57;69.21
54455;BME280;40364;52.270;10.546;2022-12-29T08:28:08;99270.56;;;17.46;69.74
54455;BME280;40364;52.270;10.546;2022-12-29T08:30:35;99268.63;;;17.73;68.78
54455;BME280;40364;52.270;10.546;2022-12-29T08:33:02;99277.81;;;17.77;67.51
54455;BME280;40364;52.270;10.546;2022-12-29T08:35:30;99273.88;;;18.52;63.08
54455;BME280;40364;52.270;10.546;2022-12-29T08:37:57;99275.59;;;18.19;64.58
54455;BME280;40364;52.270;10.546;2022-12-29T08:40:24;99287.88;;;18.05;63.42
54455;BME280;40364;52.270;10.546;2022-12-29T08:42:50;99283.84;;;18.06;64.23
54455;BME280;40364;52.270;10.546;2022-12-29T08:45:17;99270.59;;;17.76;65.60
54455;BME280;40364;52.270;10.546;2022-12-29T08:47:44;99273.91;;;17.71;65.16
54455;BME280;40364;52.270;10.546;2022-12-29T08:50:11;99272.00;;;17.61;65.39
54455;BME280;40364;52.270;10.546;2022-12-29T08:52:39;99259.50;;;18.43;62.84
54455;BME280;40364;52.270;10.546;2022-12-29T08:55:06;99267.25;;;17.85;65.35
54455;BME280;40364;52.270;10.546;2022-12-29T08:57:33;99263.53;;;17.92;65.55
54455;BME280;40364;52.270;10.546;2022-12-29T08:59:59;99266.47;;;17.84;65.62
54455;BME280;40364;52.270;10.546;2022-12-29T09:02:26;99247.91;;;18.37;62.06
54455;BME280;40364;52.270;10.546;2022-12-29T09:04:53;99247.81;;;17.94;63.06
54455;BME280;40364;52.270;10.546;2022-12-29T09:07:19;99244.06;;;17.74;64.29
54455;BME280;40364;52.270;10.546;2022-12-29T09:09:48;99249.88;;;17.60;68.39
54455;BME280;40364;52.270;10.546;2022-12-29T09:12:15;99250.97;;;18.00;69.73
54455;BME280;40364;52.270;10.546;2022-12-29T09:14:42;99263.31;;;17.79;72.19
54455;BME280;40364;52.270;10.546;2022-12-29T09:17:09;99249.94;;;17.56;73.01
54455;BME280;40364;52.270;10.546;2022-12-29T09:19:54;99251.16;;;17.86;70.92
54455;BME280;40364;52.270;10.546;2022-12-29T09:22:21;99256.59;;;18.00;71.07
54455;BME280;40364;52.270;10.546;2022-12-29T09:24:49;99251.16;;;18.36;68.67
54455;BME280;40364;52.270;10.546;2022-12-29T09:27:16;99269.19;;;18.42;68.02
54455;BME280;40364;52.270;10.546;2022-12-29T09:29:42;99265.38;;;17.75;72.14
54455;BME280;40364;52.270;10.546;2022-12-29T09:32:09;99268.84;;;17.86;73.38
54455;BME280;40364;52.270;10.546;2022-12-29T09:34:36;99260.09;;;16.78;76.28
54455;BME280;40364;52.270;10.546;2022-12-29T09:37:03;99283.72;;;17.56;78.43
54455;BME280;40364;52.270;10.546;2022-12-29T09:39:30;99288.41;;;17.36;87.29
54455;BME280;40364;52.270;10.546;2022-12-29T09:42:01;99303.78;;;17.24;86.53
54455;BME280;40364;52.270;10.546;2022-12-29T09:44:46;99339.16;;;18.24;82.54
54455;BME280;40364;52.270;10.546;2022-12-29T09:47:16;99333.81;;;18.83;76.78
54455;BME280;40364;52.270;10.546;2022-12-29T09:49:49;99313.38;;;17.64;85.10
54455;BME280;40364;52.270;10.546;2022-12-29T09:52:21;99315.91;;;17.89;82.31
54455;BME280;40364;52.270;10.546;2022-12-29T09:54:56;99330.47;;;18.11;81.81
54455;BME280;40364;52.270;10.546;2022-12-29T09:57:27;99297.06;;;18.36;77.08
54455;BME280;40364;52.270;10.546;2022-12-29T09:59:59;99318.63;;;19.20;74.44
54455;BME280;40364;52.270;10.546;2022-12-29T10:02:37;99314.72;;;19.14;72.71
54455;BME280;40364;52.270;10.546;2022-12-29T10:05:09;99312.38;;;19.52;68.27
54455;BME280;40364;52.270;10.546;2022-12-29T10:07:44;99310.41;;;19.49;70.92
54455;BME280;40364;52.270;10.546;2022-12-29T10:10:20;99313.94;;;18.90;71.31
54455;BME280;40364;52.270;10.546;2022-12-29T10:13:00;99313.31;;;17.71;75.72
54455;BME280;40364;52.270;10.546;2022-12-29T10:15:40;99317.94;;;18.15;72.06
54455;BME280;40364;52.270;10.546;2022-12-29T10:18:24;99318.22;;;17.67;77.55
54455;BME280;40364;52.270;10.546;2022-12-29T10:20:58;99306.78;;;17.78;76.12
54455;BME280;40364;52.270;10.546;2022-12-29T10:23:30;99300.78;;;17.42;75.08
54455;BME280;40364;52.270;10.546;2022-12-29T10:26:01;99306.47;;;17.38;74.23
54455;BME280;40364;52.270;10.546;2022-12-29T10:28:37;99303.75;;;17.62;71.21
54455;BME280;40364;52.270;10.546;2022-12-29T10:31:09;99308.78;;;18.08;70.09
54455;BME280;40364;52.270;10.546;2022-12-29T10:33:40;99311.28;;;18.29;66.61
54455;BME280;40364;52.270;10.546;2022-12-29T10:36:13;99317.56;;;17.49;70.14
54455;BME280;40364;52.270;10.546;2022-12-29T10:38:46;99310.97;;;17.66;69.35
54455;BME280;40364;52.270;10.546;2022-12-29T10:41:17;99311.44;;;17.58;68.89
54455;BME280;40364;52.270;10.546;2022-12-29T10:43:47;99312.75;;;18.37;64.66
54455;BME280;40364;52.270;10.546;2022-12-29T10:46:17;99311.53;;;18.38;63.40
54455;BME280;40364;52.270;10.546;2022-12-29T10:48:45;99306.06;;;17.02;68.11
54455;BME280;40364;52.270;10.546;2022-12-29T10:51:21;99316.56;;;18.27;63.54
54455;BME280;40364;52.270;10.546;2022-12-29T10:53:51;99324.59;;;17.71;64.88
54455;BME280;40364;52.270;10.546;2022-12-29T10:56:28;99319.94;;;18.15;62.48
54455;BME280;40364;52.270;10.546;2022-12-29T10:59:01;99313.69;;;18.31;62.85
54455;BME280;40364;52.270;10.546;2022-12-29T11:01:37;99317.59;;;18.10;61.90
54455;BME280;40364;52.270;10.546;2022-12-29T11:04:07;99317.84;;;18.96;58.95
54455;BME280;40364;52.270;10.546;2022-12-29T11:06:42;99322.38;;;18.67;59.96
54455;BME280;40364;52.270;10.546;2022-12-29T11:09:12;99312.19;;;18.49;61.20
54455;BME280;40364;52.270;10.546;2022-12-29T11:11:41;99308.06;;;18.31;60.46
54455;BME280;40364;52.270;10.546;2022-12-29T11:14:14;99291.44;;;17.82;60.46
54455;BME280;40364;52.270;10.546;2022-12-29T11:16:44;99297.34;;;18.45;58.16
54455;BME280;40364;52.270;10.546;2022-12-29T11:19:20;99300.94;;;18.46;59.03
54455;BME280;40364;52.270;10.546;2022-12-29T11:21:48;99293.59;;;18.52;57.82
54455;BME280;40364;52.270;10.546;2022-12-29T11:24:20;99304.75;;;18.63;57.71
54455;BME280;40364;52.270;10.546;2022-12-29T11:26:49;99310.41;;;18.05;59.62
54455;BME280;40364;52.270;10.546;2022-12-29T11:29:23;99292.06;;;18.47;57.11
54455;BME280;40364;52.270;10.546;2022-12-29T11:31:52;99302.59;;;18.43;57.78
54455;BME280;40364;52.270;10.546;2022-12-29T11:34:21;99319.16;;;17.50;59.77
54455;BME280;40364;52.270;10.546;2022-12-29T11:36:50;99306.72;;;18.12;58.08
54455;BME280;40364;52.270;10.546;2022-12-29T11:39:30;99316.41;;;17.80;58.01
54455;BME280;40364;52.270;10.546;2022-12-29T11:41:59;99300.63;;;18.67;55.62
54455;BME280;40364;52.270;10.546;2022-12-29T11:44:35;99313.34;;;19.22;54.33
54455;BME280;40364;52.270;10.546;2022-12-29T11:47:03;99302.50;;;18.50;54.33
54455;BME280;40364;52.270;10.546;2022-12-29T11:49:30;99315.00;;;18.49;53.89
54455;BME280;40364;52.270;10.546;2022-12-29T11:51:57;99304.81;;;18.32;54.31
54455;BME280;40364;52.270;10.546;2022-12-29T11:54:26;99340.16;;;17.79;59.99
54455;BME280;40364;52.270;10.546;2022-12-29T11:56:54;99342.63;;;17.02;73.30
54455;BME280;40364;52.270;10.546;2022-12-29T11:59:42;99355.59;;;16.89;76.35
54455;BME280;40364;52.270;10.546;2022-12-29T12:02:40;99347.53;;;16.91;78.25
54455;BME280;40364;52.270;10.546;2022-12-29T12:05:13;99356.03;;;16.84;79.97
54455;BME280;40364;52.270;10.546;2022-12-29T12:07:43;99352.22;;;17.08;78.81
54455;BME280;40364;52.270;10.546;2022-12-29T12:10:21;99343.22;;;17.58;75.95
54455;BME280;40364;52.270;10.546;2022-12-29T12:12:55;99356.81;;;17.67;74.46
54455;BME280;40364;52.270;10.546;2022-12-29T12:15:27;99352.53;;;17.14;76.13
54455;BME280;40364;52.270;10.546;2022-12-29T12:17:59;99366.19;;;17.15;73.74
54455;BME280;40364;52.270;10.546;2022-12-29T12:20:36;99366.06;;;17.30;73.45
54455;BME280;40364;52.270;10.546;2022-12-29T12:23:13;99361.88;;;17.07;71.29
54455;BME280;40364;52.270;10.546;2022-12-29T12:25:50;99361.16;;;16.96;70.20
54455;BME280;40364;52.270;10.546;2022-12-29T12:28:21;99343.63;;;17.23;65.10
54455;BME280;40364;52.270;10.546;2022-12-29T12:30:56;99351.41;;;17.45;62.38
54455;BME280;40364;52.270;10.546;2022-12-29T12:33:28;99351.25;;;17.94;59.21
54455;BME280;40364;52.270;10.546;2022-12-29T12:36:09;99350.56;;;18.13;56.78
54455;BME280;40364;52.270;10.546;2022-12-29T12:38:49;99350.19;;;19.15;54.33
54455;BME280;40364;52.270;10.546;2022-12-29T12:41:21;99353.72;;;18.96;53.46
54455;BME280;40364;52.270;10.546;2022-12-29T12:44:00;99355.38;;;19.16;51.70
54455;BME280;40364;52.270;10.546;2022-12-29T12:46:49;99347.59;;;18.50;52.89
54455;BME280;40364;52.270;10.546;2022-12-29T12:49:35;99347.50;;;18.31;52.77
54455;BME280;40364;52.270;10.546;2022-12-29T12:52:13;99351.63;;;17.96;54.74
54455;BME280;40364;52.270;10.546;2022-12-29T12:54:54;99354.19;;;18.67;51.64
54455;BME280;40364;52.270;10.546;2022-12-29T12:57:30;99361.50;;;18.07;53.39
54455;BME280;40364;52.270;10.546;2022-12-29T13:00:03;99366.91;;;18.25;52.97
54455;BME280;40364;52.270;10.546;2022-12-29T13:02:41;99366.22;;;17.87;54.20
54455;BME280;40364;52.270;10.546;2022-12-29T13:05:25;99362.97;;;17.89;53.29
54455;BME280;40364;52.270;10.546;2022-12-29T13:11:04;99365.50;;;17.79;54.39
54455;BME280;40364;52.270;10.546;2022-12-29T13:13:56;99370.22;;;17.90;53.77
54455;BME280;40364;52.270;10.546;2022-12-29T13:16:32;99376.28;;;18.18;53.53